sensor_id;sensor_type;location;lat;lon;timestamp;temperature;humidity
5344;DHT22;2694;48.954;8.928;2023-05-18T00:01:05;5.60;99.90
5344;DHT22;2694;48.954;8.928;2023-05-18T00:03:32;5.50;99.90
5344;DHT22;2694;48.954;8.928;2023-05-18T00:06:00;5.40;99.90
5344;DHT22;2694;48.954;8.928;2023-05-18T00:08:32;5.50;99.90
5344;DHT22;2694;48.954;8.928;2023-05-18T00:10:59;5.30;99.90
5344;DHT22;2694;48.954;8.928;2023-05-18T00:13:26;5.40;99.90
5344;DHT22;2694;48.954;8.928;2023-05-18T00:15:53;5.40;99.90
5344;DHT22;2694;48.954;8.928;2023-05-18T00:18:22;5.30;99.90
5344;DHT22;2694;48.954;8.928;2023-05-18T00:20:51;5.30;99.90
5344;DHT22;2694;48.954;8.928;2023-05-18T00:23:25;5.20;99.90
5344;DHT22;2694;48.954;8.928;2023-05-18T00:25:55;5.10;99.90
5344;DHT22;2694;48.954;8.928;2023-05-18T00:28:22;5.10;99.90
5344;DHT22;2694;48.954;8.928;2023-05-18T00:30:49;5.10;99.90
5344;DHT22;2694;48.954;8.928;2023-05-18T00:33:16;5.10;99.90
5344;DHT22;2694;48.954;8.928;2023-05-18T00:35:45;5.10;99.90
5344;DHT22;2694;48.954;8.928;2023-05-18T00:38:12;5.10;99.90
5344;DHT22;2694;48.954;8.928;2023-05-18T00:40:41;5.10;99.90
5344;DHT22;2694;48.954;8.928;2023-05-18T00:43:08;5.10;99.90
5344;DHT22;2694;48.954;8.928;2023-05-18T00:45:35;5.10;99.90
5344;DHT22;2694;48.954;8.928;2023-05-18T00:48:02;5.00;99.90
5344;DHT22;2694;48.954;8.928;2023-05-18T00:50:29;4.90;99.90
5344;DHT22;2694;48.954;8.928;2023-05-18T00:52:58;4.90;99.90
5344;DHT22;2694;48.954;8.928;2023-05-18T00:55:25;4.90;99.90
5344;DHT22;2694;48.954;8.928;2023-05-18T00:57:53;4.80;99.90
5344;DHT22;2694;48.954;8.928;2023-05-18T01:00:21;4.80;99.90
5344;DHT22;2694;48.954;8.928;2023-05-18T01:02:48;4.70;99.90
5344;DHT22;2694;48.954;8.928;2023-05-18T01:05:15;4.60;99.90
5344;DHT22;2694;48.954;8.928;2023-05-18T01:07:45;4.70;99.90
5344;DHT22;2694;48.954;8.928;2023-05-18T01:10:15;4.80;99.90
5344;DHT22;2694;48.954;8.928;2023-05-18T01:12:47;4.60;99.90
5344;DHT22;2694;48.954;8.928;2023-05-18T01:15:17;4.80;99.90
5344;DHT22;2694;48.954;8.928;2023-05-18T01:17:54;4.90;99.90
5344;DHT22;2694;48.954;8.928;2023-05-18T01:20:31;4.90;99.90
5344;DHT22;2694;48.954;8.928;2023-05-18T01:26:15;5.00;99.90
5344;DHT22;2694;48.954;8.928;2023-05-18T01:28:44;5.10;99.90
5344;DHT22;2694;48.954;8.928;2023-05-18T01:31:13;5.20;99.90
5344;DHT22;2694;48.954;8.928;2023-05-18T01:33:41;5.10;99.90
5344;DHT22;2694;48.954;8.928;2023-05-18T01:36:08;5.00;99.90
5344;DHT22;2694;48.954;8.928;2023-05-18T01:38:36;5.10;99.90
5344;DHT22;2694;48.954;8.928;2023-05-18T01:41:10;5.10;99.90
5344;DHT22;2694;48.954;8.928;2023-05-18T01:43:45;5.00;99.90
5344;DHT22;2694;48.954;8.928;2023-05-18T01:46:20;5.10;99.90
5344;DHT22;2694;48.954;8.928;2023-05-18T01:48:53;5.10;99.90
5344;DHT22;2694;48.954;8.928;2023-05-18T01:51:21;5.20;99.90
5344;DHT22;2694;48.954;8.928;2023-05-18T01:53:56;5.10;99.90
5344;DHT22;2694;48.954;8.928;2023-05-18T01:56:25;5.10;99.90
5344;DHT22;2694;48.954;8.928;2023-05-18T01:58:54;5.00;99.90
5344;DHT22;2694;48.954;8.928;2023-05-18T02:01:22;5.00;99.90
5344;DHT22;2694;48.954;8.928;2023-05-18T02:03:50;4.90;99.90
5344;DHT22;2694;48.954;8.928;2023-05-18T02:06:17;4.80;99.90
5344;DHT22;2694;48.954;8.928;2023-05-18T02:08:44;4.80;99.90
5344;DHT22;2694;48.954;8.928;2023-05-18T02:11:11;4.90;99.90
5344;DHT22;2694;48.954;8.928;2023-05-18T02:13:38;4.80;99.90
5344;DHT22;2694;48.954;8.928;2023-05-18T02:16:07;4.90;99.90
5344;DHT22;2694;48.954;8.928;2023-05-18T02:18:35;5.00;99.90
5344;DHT22;2694;48.954;8.928;2023-05-18T02:21:03;5.00;99.90
5344;DHT22;2694;48.954;8.928;2023-05-18T02:23:30;5.00;99.90
5344;DHT22;2694;48.954;8.928;2023-05-18T02:25:58;5.10;99.90
5344;DHT22;2694;48.954;8.928;2023-05-18T02:28:25;5.20;99.90
5344;DHT22;2694;48.954;8.928;2023-05-18T02:30:52;5.20;99.90
5344;DHT22;2694;48.954;8.928;2023-05-18T02:33:20;5.10;99.90
5344;DHT22;2694;48.954;8.928;2023-05-18T02:35:51;5.20;99.90
5344;DHT22;2694;48.954;8.928;2023-05-18T02:38:18;5.20;99.90
5344;DHT22;2694;48.954;8.928;2023-05-18T02:40:46;5.20;99.90
5344;DHT22;2694;48.954;8.928;2023-05-18T02:43:13;5.20;99.90
5344;DHT22;2694;48.954;8.928;2023-05-18T02:45:40;5.20;99.90
5344;DHT22;2694;48.954;8.928;2023-05-18T02:48:07;5.20;99.90
5344;DHT22;2694;48.954;8.928;2023-05-18T02:50:36;5.20;99.90
5344;DHT22;2694;48.954;8.928;2023-05-18T02:53:03;5.10;99.90
5344;DHT22;2694;48.954;8.928;2023-05-18T02:55:30;5.10;99.90
5344;DHT22;2694;48.954;8.928;2023-05-18T02:57:57;5.10;99.90
5344;DHT22;2694;48.954;8.928;2023-05-18T03:00:24;5.10;99.90
5344;DHT22;2694;48.954;8.928;2023-05-18T03:02:54;5.20;99.90
5344;DHT22;2694;48.954;8.928;2023-05-18T03:05:22;5.20;99.90
5344;DHT22;2694;48.954;8.928;2023-05-18T03:07:51;5.10;99.90
5344;DHT22;2694;48.954;8.928;2023-05-18T03:10:19;5.10;99.90
5344;DHT22;2694;48.954;8.928;2023-05-18T03:12:46;5.10;99.90
5344;DHT22;2694;48.954;8.928;2023-05-18T03:15:14;5.10;99.90
5344;DHT22;2694;48.954;8.928;2023-05-18T03:17:41;5.10;99.90
5344;DHT22;2694;48.954;8.928;2023-05-18T03:20:09;5.10;99.90
5344;DHT22;2694;48.954;8.928;2023-05-18T03:22:39;5.00;99.90
5344;DHT22;2694;48.954;8.928;2023-05-18T03:25:08;4.90;99.90
5344;DHT22;2694;48.954;8.928;2023-05-18T03:27:34;4.90;99.90
5344;DHT22;2694;48.954;8.928;2023-05-18T03:30:03;4.80;99.90
5344;DHT22;2694;48.954;8.928;2023-05-18T03:32:30;4.60;99.90
5344;DHT22;2694;48.954;8.928;2023-05-18T03:34:57;4.60;99.90
5344;DHT22;2694;48.954;8.928;2023-05-18T03:37:25;4.50;99.90
5344;DHT22;2694;48.954;8.928;2023-05-18T03:39:52;4.50;99.90
5344;DHT22;2694;48.954;8.928;2023-05-18T03:42:22;4.50;99.90
5344;DHT22;2694;48.954;8.928;2023-05-18T03:44:50;4.50;99.90
5344;DHT22;2694;48.954;8.928;2023-05-18T03:47:17;4.60;99.90
5344;DHT22;2694;48.954;8.928;2023-05-18T03:49:44;4.50;99.90
5344;DHT22;2694;48.954;8.928;2023-05-18T03:52:11;4.50;99.90
5344;DHT22;2694;48.954;8.928;2023-05-18T03:54:39;4.60;99.90
5344;DHT22;2694;48.954;8.928;2023-05-18T03:57:08;4.60;99.90
5344;DHT22;2694;48.954;8.928;2023-05-18T03:59:37;4.60;99.90
5344;DHT22;2694;48.954;8.928;2023-05-18T04:02:04;4.60;99.90
5344;DHT22;2694;48.954;8.928;2023-05-18T04:04:32;4.50;99.90
5344;DHT22;2694;48.954;8.928;2023-05-18T04:06:59;4.60;99.90
5344;DHT22;2694;48.954;8.928;2023-05-18T04:09:30;4.60;99.90
5344;DHT22;2694;48.954;8.928;2023-05-18T04:11:58;4.60;99.90
5344;DHT22;2694;48.954;8.928;2023-05-18T04:14:25;4.70;99.90
5344;DHT22;2694;48.954;8.928;2023-05-18T04:16:54;4.70;99.90
5344;DHT22;2694;48.954;8.928;2023-05-18T04:19:22;4.70;99.90
5344;DHT22;2694;48.954;8.928;2023-05-18T04:21:49;4.70;99.90
5344;DHT22;2694;48.954;8.928;2023-05-18T04:24:17;4.80;99.90
5344;DHT22;2694;48.954;8.928;2023-05-18T04:26:44;5.00;99.90
5344;DHT22;2694;48.954;8.928;2023-05-18T04:29:11;5.10;99.90
5344;DHT22;2694;48.954;8.928;2023-05-18T04:31:38;4.80;99.90
5344;DHT22;2694;48.954;8.928;2023-05-18T04:34:08;5.40;99.90
5344;DHT22;2694;48.954;8.928;2023-05-18T04:36:37;5.40;99.90
5344;DHT22;2694;48.954;8.928;2023-05-18T04:39:07;5.30;99.90
5344;DHT22;2694;48.954;8.928;2023-05-18T04:41:35;5.40;99.90
5344;DHT22;2694;48.954;8.928;2023-05-18T04:44:03;5.50;99.90
5344;DHT22;2694;48.954;8.928;2023-05-18T04:46:30;5.60;99.90
5344;DHT22;2694;48.954;8.928;2023-05-18T04:48:58;5.80;99.90
5344;DHT22;2694;48.954;8.928;2023-05-18T04:51:27;6.00;99.90
5344;DHT22;2694;48.954;8.928;2023-05-18T04:53:54;6.10;99.90
5344;DHT22;2694;48.954;8.928;2023-05-18T04:56:21;6.30;99.90
5344;DHT22;2694;48.954;8.928;2023-05-18T04:58:48;6.50;99.90
5344;DHT22;2694;48.954;8.928;2023-05-18T05:01:16;6.50;99.90
5344;DHT22;2694;48.954;8.928;2023-05-18T05:03:43;6.70;99.90
5344;DHT22;2694;48.954;8.928;2023-05-18T05:06:10;6.80;99.90
5344;DHT22;2694;48.954;8.928;2023-05-18T05:08:39;6.80;99.90
5344;DHT22;2694;48.954;8.928;2023-05-18T05:11:06;7.00;99.90
5344;DHT22;2694;48.954;8.928;2023-05-18T05:13:33;7.30;99.90
5344;DHT22;2694;48.954;8.928;2023-05-18T05:16:00;7.40;99.90
5344;DHT22;2694;48.954;8.928;2023-05-18T05:18:27;7.60;99.90
5344;DHT22;2694;48.954;8.928;2023-05-18T05:20:54;7.60;99.90
5344;DHT22;2694;48.954;8.928;2023-05-18T05:23:21;7.80;99.90
5344;DHT22;2694;48.954;8.928;2023-05-18T05:25:50;7.90;99.90
5344;DHT22;2694;48.954;8.928;2023-05-18T05:28:17;8.10;99.90
5344;DHT22;2694;48.954;8.928;2023-05-18T05:30:44;8.30;99.90
5344;DHT22;2694;48.954;8.928;2023-05-18T05:33:11;8.60;99.90
5344;DHT22;2694;48.954;8.928;2023-05-18T05:35:38;8.80;99.90
5344;DHT22;2694;48.954;8.928;2023-05-18T05:38:05;9.00;99.90
5344;DHT22;2694;48.954;8.928;2023-05-18T05:40:32;9.20;99.90
5344;DHT22;2694;48.954;8.928;2023-05-18T05:43:00;9.40;99.90
5344;DHT22;2694;48.954;8.928;2023-05-18T05:45:27;9.50;99.90
5344;DHT22;2694;48.954;8.928;2023-05-18T05:47:54;9.70;99.90
5344;DHT22;2694;48.954;8.928;2023-05-18T05:50:21;9.80;99.90
5344;DHT22;2694;48.954;8.928;2023-05-18T05:52:48;9.60;99.90
5344;DHT22;2694;48.954;8.928;2023-05-18T05:55:15;9.80;99.90
5344;DHT22;2694;48.954;8.928;2023-05-18T05:57:42;9.80;99.90
5344;DHT22;2694;48.954;8.928;2023-05-18T06:00:12;9.70;99.90
5344;DHT22;2694;48.954;8.928;2023-05-18T06:02:39;9.80;99.90
5344;DHT22;2694;48.954;8.928;2023-05-18T06:05:07;9.70;99.90
5344;DHT22;2694;48.954;8.928;2023-05-18T06:07:34;9.80;99.90
5344;DHT22;2694;48.954;8.928;2023-05-18T06:10:02;9.80;99.90
5344;DHT22;2694;48.954;8.928;2023-05-18T06:12:29;9.80;99.90
5344;DHT22;2694;48.954;8.928;2023-05-18T06:14:56;9.80;99.90
5344;DHT22;2694;48.954;8.928;2023-05-18T06:17:25;9.70;99.90
5344;DHT22;2694;48.954;8.928;2023-05-18T06:19:52;9.80;99.90
5344;DHT22;2694;48.954;8.928;2023-05-18T06:22:19;9.90;99.90
5344;DHT22;2694;48.954;8.928;2023-05-18T06:24:46;10.10;99.90
5344;DHT22;2694;48.954;8.928;2023-05-18T06:27:13;10.20;99.90
5344;DHT22;2694;48.954;8.928;2023-05-18T06:29:41;10.20;99.90
5344;DHT22;2694;48.954;8.928;2023-05-18T06:32:08;10.30;99.90
5344;DHT22;2694;48.954;8.928;2023-05-18T06:34:37;10.30;99.90
5344;DHT22;2694;48.954;8.928;2023-05-18T06:37:04;10.40;99.90
5344;DHT22;2694;48.954;8.928;2023-05-18T06:39:31;10.40;99.90
5344;DHT22;2694;48.954;8.928;2023-05-18T06:41:58;10.30;99.90
5344;DHT22;2694;48.954;8.928;2023-05-18T06:44:25;10.30;99.90
5344;DHT22;2694;48.954;8.928;2023-05-18T06:46:52;10.30;99.90
5344;DHT22;2694;48.954;8.928;2023-05-18T06:49:19;10.30;99.90
5344;DHT22;2694;48.954;8.928;2023-05-18T06:51:48;10.30;99.90
5344;DHT22;2694;48.954;8.928;2023-05-18T06:54:15;10.40;99.90
5344;DHT22;2694;48.954;8.928;2023-05-18T06:56:42;10.50;99.90
5344;DHT22;2694;48.954;8.928;2023-05-18T06:59:09;10.70;99.90
5344;DHT22;2694;48.954;8.928;2023-05-18T07:01:36;10.70;99.90
5344;DHT22;2694;48.954;8.928;2023-05-18T07:04:03;10.80;99.90
5344;DHT22;2694;48.954;8.928;2023-05-18T07:06:30;11.10;99.90
5344;DHT22;2694;48.954;8.928;2023-05-18T07:08:58;11.10;99.90
5344;DHT22;2694;48.954;8.928;2023-05-18T07:11:26;11.10;99.90
5344;DHT22;2694;48.954;8.928;2023-05-18T07:13:53;11.10;99.90
5344;DHT22;2694;48.954;8.928;2023-05-18T07:16:20;11.20;99.90
5344;DHT22;2694;48.954;8.928;2023-05-18T07:18:47;11.20;99.90
5344;DHT22;2694;48.954;8.928;2023-05-18T07:21:14;11.10;99.90
5344;DHT22;2694;48.954;8.928;2023-05-18T07:23:41;12.20;99.90
5344;DHT22;2694;48.954;8.928;2023-05-18T07:26:10;11.50;99.90
5344;DHT22;2694;48.954;8.928;2023-05-18T07:28:37;11.60;99.90
5344;DHT22;2694;48.954;8.928;2023-05-18T07:31:04;11.70;99.90
5344;DHT22;2694;48.954;8.928;2023-05-18T07:33:31;11.70;99.90
5344;DHT22;2694;48.954;8.928;2023-05-18T07:35:58;11.70;99.90
5344;DHT22;2694;48.954;8.928;2023-05-18T07:38:25;12.00;99.90
5344;DHT22;2694;48.954;8.928;2023-05-18T07:40:52;12.30;99.90
5344;DHT22;2694;48.954;8.928;2023-05-18T07:43:21;12.30;99.90
5344;DHT22;2694;48.954;8.928;2023-05-18T07:45:48;12.50;99.90
5344;DHT22;2694;48.954;8.928;2023-05-18T07:48:16;12.50;99.90
5344;DHT22;2694;48.954;8.928;2023-05-18T07:50:43;12.50;99.90
5344;DHT22;2694;48.954;8.928;2023-05-18T07:53:10;12.80;99.90
5344;DHT22;2694;48.954;8.928;2023-05-18T07:55:37;12.90;99.90
5344;DHT22;2694;48.954;8.928;2023-05-18T07:58:06;13.10;99.90
5344;DHT22;2694;48.954;8.928;2023-05-18T08:00:35;13.00;99.90
5344;DHT22;2694;48.954;8.928;2023-05-18T08:03:02;13.20;99.90
5344;DHT22;2694;48.954;8.928;2023-05-18T08:05:31;13.30;99.90
5344;DHT22;2694;48.954;8.928;2023-05-18T08:07:58;13.30;99.90
5344;DHT22;2694;48.954;8.928;2023-05-18T08:10:25;13.60;99.90
5344;DHT22;2694;48.954;8.928;2023-05-18T08:12:52;13.80;99.90
5344;DHT22;2694;48.954;8.928;2023-05-18T08:15:19;13.80;99.90
5344;DHT22;2694;48.954;8.928;2023-05-18T08:17:48;13.90;99.90
5344;DHT22;2694;48.954;8.928;2023-05-18T08:20:15;13.90;99.90
5344;DHT22;2694;48.954;8.928;2023-05-18T08:22:43;13.80;99.90
5344;DHT22;2694;48.954;8.928;2023-05-18T08:25:10;13.70;99.90
5344;DHT22;2694;48.954;8.928;2023-05-18T08:27:37;13.60;99.90
5344;DHT22;2694;48.954;8.928;2023-05-18T08:30:05;13.70;99.90
5344;DHT22;2694;48.954;8.928;2023-05-18T08:32:32;13.90;99.90
5344;DHT22;2694;48.954;8.928;2023-05-18T08:35:03;14.00;99.80
5344;DHT22;2694;48.954;8.928;2023-05-18T08:37:30;14.00;99.90
5344;DHT22;2694;48.954;8.928;2023-05-18T08:39:57;14.10;99.90
5344;DHT22;2694;48.954;8.928;2023-05-18T08:42:29;14.40;99.30
5344;DHT22;2694;48.954;8.928;2023-05-18T08:45:07;14.30;99.10
5344;DHT22;2694;48.954;8.928;2023-05-18T08:47:36;14.20;99.40
5344;DHT22;2694;48.954;8.928;2023-05-18T08:50:06;14.30;99.30
5344;DHT22;2694;48.954;8.928;2023-05-18T08:52:41;14.60;99.80
5344;DHT22;2694;48.954;8.928;2023-05-18T08:55:14;14.90;98.80
5344;DHT22;2694;48.954;8.928;2023-05-18T08:57:45;15.30;98.50
5344;DHT22;2694;48.954;8.928;2023-05-18T09:00:15;15.40;98.10
5344;DHT22;2694;48.954;8.928;2023-05-18T09:02:51;15.00;98.30
5344;DHT22;2694;48.954;8.928;2023-05-18T09:05:20;15.00;98.00
5344;DHT22;2694;48.954;8.928;2023-05-18T09:07:49;15.00;98.40
5344;DHT22;2694;48.954;8.928;2023-05-18T09:10:17;15.10;97.80
5344;DHT22;2694;48.954;8.928;2023-05-18T09:12:44;15.00;97.40
5344;DHT22;2694;48.954;8.928;2023-05-18T09:15:14;15.30;98.50
5344;DHT22;2694;48.954;8.928;2023-05-18T09:17:41;15.40;97.40
5344;DHT22;2694;48.954;8.928;2023-05-18T09:20:08;15.60;97.80
5344;DHT22;2694;48.954;8.928;2023-05-18T09:22:37;15.50;97.10
5344;DHT22;2694;48.954;8.928;2023-05-18T09:25:08;15.80;97.40
5344;DHT22;2694;48.954;8.928;2023-05-18T09:27:35;16.00;96.40
5344;DHT22;2694;48.954;8.928;2023-05-18T09:30:03;15.60;96.20
5344;DHT22;2694;48.954;8.928;2023-05-18T09:32:33;15.20;96.40
5344;DHT22;2694;48.954;8.928;2023-05-18T09:35:05;15.00;96.60
5344;DHT22;2694;48.954;8.928;2023-05-18T09:37:32;15.20;96.70
5344;DHT22;2694;48.954;8.928;2023-05-18T09:40:02;15.40;96.90
5344;DHT22;2694;48.954;8.928;2023-05-18T09:42:36;15.70;96.10
5344;DHT22;2694;48.954;8.928;2023-05-18T09:45:15;15.80;96.10
5344;DHT22;2694;48.954;8.928;2023-05-18T09:47:42;16.00;95.40
5344;DHT22;2694;48.954;8.928;2023-05-18T09:50:09;15.80;95.20
5344;DHT22;2694;48.954;8.928;2023-05-18T09:52:40;15.80;96.20
5344;DHT22;2694;48.954;8.928;2023-05-18T09:55:09;15.80;95.40
5344;DHT22;2694;48.954;8.928;2023-05-18T09:57:42;15.60;95.20
5344;DHT22;2694;48.954;8.928;2023-05-18T10:00:11;15.80;95.90
5344;DHT22;2694;48.954;8.928;2023-05-18T10:02:41;16.00;96.10
5344;DHT22;2694;48.954;8.928;2023-05-18T10:05:18;16.00;95.10
5344;DHT22;2694;48.954;8.928;2023-05-18T10:07:45;16.20;95.40
5344;DHT22;2694;48.954;8.928;2023-05-18T10:10:16;16.10;94.80
5344;DHT22;2694;48.954;8.928;2023-05-18T10:12:43;16.10;95.60
5344;DHT22;2694;48.954;8.928;2023-05-18T10:15:13;16.20;95.20
5344;DHT22;2694;48.954;8.928;2023-05-18T10:17:42;16.10;94.60
5344;DHT22;2694;48.954;8.928;2023-05-18T10:20:09;15.70;94.70
5344;DHT22;2694;48.954;8.928;2023-05-18T10:22:36;16.00;94.50
5344;DHT22;2694;48.954;8.928;2023-05-18T10:25:05;16.40;93.60
5344;DHT22;2694;48.954;8.928;2023-05-18T10:27:38;16.80;94.90
5344;DHT22;2694;48.954;8.928;2023-05-18T10:30:07;17.30;92.50
5344;DHT22;2694;48.954;8.928;2023-05-18T10:32:35;17.60;91.70
5344;DHT22;2694;48.954;8.928;2023-05-18T10:35:05;17.50;91.40
5344;DHT22;2694;48.954;8.928;2023-05-18T10:37:36;17.60;91.70
5344;DHT22;2694;48.954;8.928;2023-05-18T10:40:06;17.30;91.10
5344;DHT22;2694;48.954;8.928;2023-05-18T10:42:34;17.00;91.60
5344;DHT22;2694;48.954;8.928;2023-05-18T10:45:05;17.10;91.30
5344;DHT22;2694;48.954;8.928;2023-05-18T10:47:35;17.30;91.30
5344;DHT22;2694;48.954;8.928;2023-05-18T10:50:04;17.40;91.40
5344;DHT22;2694;48.954;8.928;2023-05-18T10:52:32;17.20;90.60
5344;DHT22;2694;48.954;8.928;2023-05-18T10:55:00;17.00;90.60
5344;DHT22;2694;48.954;8.928;2023-05-18T10:57:32;16.80;90.50
5344;DHT22;2694;48.954;8.928;2023-05-18T11:00:01;16.60;90.40
5344;DHT22;2694;48.954;8.928;2023-05-18T11:02:30;16.40;90.60
5344;DHT22;2694;48.954;8.928;2023-05-18T11:04:57;16.40;90.60
5344;DHT22;2694;48.954;8.928;2023-05-18T11:07:24;16.70;90.70
5344;DHT22;2694;48.954;8.928;2023-05-18T11:09:53;17.30;90.60
5344;DHT22;2694;48.954;8.928;2023-05-18T11:12:21;17.60;90.90
5344;DHT22;2694;48.954;8.928;2023-05-18T11:14:51;18.10;89.80
5344;DHT22;2694;48.954;8.928;2023-05-18T11:17:19;18.00;88.20
5344;DHT22;2694;48.954;8.928;2023-05-18T11:20:14;17.80;88.30
5344;DHT22;2694;48.954;8.928;2023-05-18T11:22:48;17.30;88.60
5344;DHT22;2694;48.954;8.928;2023-05-18T11:25:35;17.20;87.40
5344;DHT22;2694;48.954;8.928;2023-05-18T11:28:04;17.30;88.30
5344;DHT22;2694;48.954;8.928;2023-05-18T11:30:45;17.30;87.70
5344;DHT22;2694;48.954;8.928;2023-05-18T11:33:14;17.40;88.30
5344;DHT22;2694;48.954;8.928;2023-05-18T11:36:01;17.00;88.30
5344;DHT22;2694;48.954;8.928;2023-05-18T11:38:49;17.00;89.60
5344;DHT22;2694;48.954;8.928;2023-05-18T11:41:28;17.10;88.30
5344;DHT22;2694;48.954;8.928;2023-05-18T11:44:14;17.20;89.30
5344;DHT22;2694;48.954;8.928;2023-05-18T11:46:51;17.60;86.80
5344;DHT22;2694;48.954;8.928;2023-05-18T11:49:20;17.00;85.10
5344;DHT22;2694;48.954;8.928;2023-05-18T11:52:04;17.70;85.80
5344;DHT22;2694;48.954;8.928;2023-05-18T11:54:39;17.80;86.30
5344;DHT22;2694;48.954;8.928;2023-05-18T11:57:07;17.60;85.70
5344;DHT22;2694;48.954;8.928;2023-05-18T11:59:37;17.40;86.60
5344;DHT22;2694;48.954;8.928;2023-05-18T12:02:04;17.50;85.90
5344;DHT22;2694;48.954;8.928;2023-05-18T12:04:32;17.50;86.60
5344;DHT22;2694;48.954;8.928;2023-05-18T12:07:05;17.60;85.40
5344;DHT22;2694;48.954;8.928;2023-05-18T12:09:32;17.90;88.00
5344;DHT22;2694;48.954;8.928;2023-05-18T12:12:00;18.10;88.50
5344;DHT22;2694;48.954;8.928;2023-05-18T12:14:28;18.10;83.60
5344;DHT22;2694;48.954;8.928;2023-05-18T12:16:57;18.00;85.40
5344;DHT22;2694;48.954;8.928;2023-05-18T12:19:25;18.20;85.30
5344;DHT22;2694;48.954;8.928;2023-05-18T12:21:52;18.00;84.60
5344;DHT22;2694;48.954;8.928;2023-05-18T12:24:21;18.00;85.00
5344;DHT22;2694;48.954;8.928;2023-05-18T12:26:48;18.10;84.30
5344;DHT22;2694;48.954;8.928;2023-05-18T12:29:15;18.20;85.70
5344;DHT22;2694;48.954;8.928;2023-05-18T12:31:45;18.30;84.40
5344;DHT22;2694;48.954;8.928;2023-05-18T12:34:16;18.30;83.90
5344;DHT22;2694;48.954;8.928;2023-05-18T12:36:52;18.10;83.50
5344;DHT22;2694;48.954;8.928;2023-05-18T12:39:21;18.00;83.00
5344;DHT22;2694;48.954;8.928;2023-05-18T12:41:48;17.80;83.80
5344;DHT22;2694;48.954;8.928;2023-05-18T12:44:15;17.90;85.20
5344;DHT22;2694;48.954;8.928;2023-05-18T12:46:42;18.00;83.20
5344;DHT22;2694;48.954;8.928;2023-05-18T12:49:10;17.90;83.00
5344;DHT22;2694;48.954;8.928;2023-05-18T12:51:38;17.60;84.20
5344;DHT22;2694;48.954;8.928;2023-05-18T12:54:06;17.80;85.00
5344;DHT22;2694;48.954;8.928;2023-05-18T12:56:51;18.20;83.40
5344;DHT22;2694;48.954;8.928;2023-05-18T12:59:24;18.30;81.80
5344;DHT22;2694;48.954;8.928;2023-05-18T13:01:51;17.90;82.90
5344;DHT22;2694;48.954;8.928;2023-05-18T13:04:18;17.80;82.00
5344;DHT22;2694;48.954;8.928;2023-05-18T13:06:45;17.80;84.00
5344;DHT22;2694;48.954;8.928;2023-05-18T13:09:13;17.90;82.40
5344;DHT22;2694;48.954;8.928;2023-05-18T13:11:45;17.80;81.80
5344;DHT22;2694;48.954;8.928;2023-05-18T13:14:19;17.70;82.80
5344;DHT22;2694;48.954;8.928;2023-05-18T13:16:49;17.90;82.70
5344;DHT22;2694;48.954;8.928;2023-05-18T13:19:17;18.20;83.10
5344;DHT22;2694;48.954;8.928;2023-05-18T13:21:53;18.40;82.90
5344;DHT22;2694;48.954;8.928;2023-05-18T13:24:29;18.70;81.10
5344;DHT22;2694;48.954;8.928;2023-05-18T13:26:56;18.60;80.70
5344;DHT22;2694;48.954;8.928;2023-05-18T13:29:24;18.60;80.60
5344;DHT22;2694;48.954;8.928;2023-05-18T13:31:53;18.30;80.20
5344;DHT22;2694;48.954;8.928;2023-05-18T13:34:20;18.10;81.30
5344;DHT22;2694;48.954;8.928;2023-05-18T13:36:47;18.40;82.80
5344;DHT22;2694;48.954;8.928;2023-05-18T13:39:13;18.80;82.40
5344;DHT22;2694;48.954;8.928;2023-05-18T13:41:41;19.00;80.80
5344;DHT22;2694;48.954;8.928;2023-05-18T13:44:08;19.00;79.00
5344;DHT22;2694;48.954;8.928;2023-05-18T13:46:37;18.90;79.70
5344;DHT22;2694;48.954;8.928;2023-05-18T13:49:04;18.80;78.20
5344;DHT22;2694;48.954;8.928;2023-05-18T13:51:31;18.80;81.30
5344;DHT22;2694;48.954;8.928;2023-05-18T13:53:59;18.80;79.60
5344;DHT22;2694;48.954;8.928;2023-05-18T13:56:26;18.60;80.50
5344;DHT22;2694;48.954;8.928;2023-05-18T13:58:53;18.30;80.30
5344;DHT22;2694;48.954;8.928;2023-05-18T14:01:20;18.30;80.20
5344;DHT22;2694;48.954;8.928;2023-05-18T14:03:49;18.20;80.70
5344;DHT22;2694;48.954;8.928;2023-05-18T14:06:16;18.30;81.00
5344;DHT22;2694;48.954;8.928;2023-05-18T14:08:43;18.50;80.40
5344;DHT22;2694;48.954;8.928;2023-05-18T14:11:10;18.50;79.40
5344;DHT22;2694;48.954;8.928;2023-05-18T14:13:37;18.40;79.10
5344;DHT22;2694;48.954;8.928;2023-05-18T14:16:04;18.50;79.00
5344;DHT22;2694;48.954;8.928;2023-05-18T14:18:32;18.50;79.80
5344;DHT22;2694;48.954;8.928;2023-05-18T14:21:00;18.60;80.60
5344;DHT22;2694;48.954;8.928;2023-05-18T14:23:28;19.10;82.00
5344;DHT22;2694;48.954;8.928;2023-05-18T14:25:55;18.30;80.80
5344;DHT22;2694;48.954;8.928;2023-05-18T14:28:22;18.30;81.10
5344;DHT22;2694;48.954;8.928;2023-05-18T14:30:49;18.50;79.60
5344;DHT22;2694;48.954;8.928;2023-05-18T14:33:16;18.70;80.50
5344;DHT22;2694;48.954;8.928;2023-05-18T14:35:43;18.80;79.20
5344;DHT22;2694;48.954;8.928;2023-05-18T14:38:11;18.60;79.20
5344;DHT22;2694;48.954;8.928;2023-05-18T14:40:38;18.60;81.40
5344;DHT22;2694;48.954;8.928;2023-05-18T14:43:05;18.70;79.40
5344;DHT22;2694;48.954;8.928;2023-05-18T14:45:32;18.50;77.60
5344;DHT22;2694;48.954;8.928;2023-05-18T14:47:59;18.30;79.10
5344;DHT22;2694;48.954;8.928;2023-05-18T14:50:26;18.50;79.10
5344;DHT22;2694;48.954;8.928;2023-05-18T14:52:53;18.90;78.40
5344;DHT22;2694;48.954;8.928;2023-05-18T14:55:21;19.20;78.00
5344;DHT22;2694;48.954;8.928;2023-05-18T14:57:48;19.00;76.70
5344;DHT22;2694;48.954;8.928;2023-05-18T15:00:16;18.70;77.50
5344;DHT22;2694;48.954;8.928;2023-05-18T15:02:43;18.40;77.70
5344;DHT22;2694;48.954;8.928;2023-05-18T15:05:10;18.30;79.00
5344;DHT22;2694;48.954;8.928;2023-05-18T15:07:37;18.50;78.40
5344;DHT22;2694;48.954;8.928;2023-05-18T15:10:05;18.60;78.80
5344;DHT22;2694;48.954;8.928;2023-05-18T15:12:33;18.70;78.10
5344;DHT22;2694;48.954;8.928;2023-05-18T15:15:00;18.70;77.30
5344;DHT22;2694;48.954;8.928;2023-05-18T15:17:27;18.80;78.40
5344;DHT22;2694;48.954;8.928;2023-05-18T15:19:54;18.90;76.80
5344;DHT22;2694;48.954;8.928;2023-05-18T15:22:21;18.90;77.30
5344;DHT22;2694;48.954;8.928;2023-05-18T15:24:48;19.00;76.80
5344;DHT22;2694;48.954;8.928;2023-05-18T15:27:15;18.90;77.20
5344;DHT22;2694;48.954;8.928;2023-05-18T15:29:44;18.90;78.00
5344;DHT22;2694;48.954;8.928;2023-05-18T15:32:13;18.70;77.40
5344;DHT22;2694;48.954;8.928;2023-05-18T15:34:40;18.50;77.20
5344;DHT22;2694;48.954;8.928;2023-05-18T15:37:07;18.30;76.60
5344;DHT22;2694;48.954;8.928;2023-05-18T15:39:36;18.20;77.90
5344;DHT22;2694;48.954;8.928;2023-05-18T15:42:04;18.30;78.80
5344;DHT22;2694;48.954;8.928;2023-05-18T15:44:31;18.60;78.30
5344;DHT22;2694;48.954;8.928;2023-05-18T15:47:00;18.80;77.70
5344;DHT22;2694;48.954;8.928;2023-05-18T15:49:27;18.90;76.40
5344;DHT22;2694;48.954;8.928;2023-05-18T15:51:54;18.90;76.40
5344;DHT22;2694;48.954;8.928;2023-05-18T15:54:21;18.70;76.40
5344;DHT22;2694;48.954;8.928;2023-05-18T15:56:49;18.70;76.20
5344;DHT22;2694;48.954;8.928;2023-05-18T15:59:16;18.60;75.80
5344;DHT22;2694;48.954;8.928;2023-05-18T16:01:43;18.50;76.50
5344;DHT22;2694;48.954;8.928;2023-05-18T16:04:11;18.30;77.30
5344;DHT22;2694;48.954;8.928;2023-05-18T16:06:38;17.90;77.30
5344;DHT22;2694;48.954;8.928;2023-05-18T16:09:05;17.70;78.20
5344;DHT22;2694;48.954;8.928;2023-05-18T16:11:32;17.60;79.10
5344;DHT22;2694;48.954;8.928;2023-05-18T16:14:03;17.60;79.40
5344;DHT22;2694;48.954;8.928;2023-05-18T16:16:31;17.60;79.40
5344;DHT22;2694;48.954;8.928;2023-05-18T16:18:58;17.80;79.00